createdAt,value
2023-04-11T00:03:39.406Z,15.52
2023-04-11T00:07:40.960Z,15.98
2023-04-11T00:11:43.139Z,15.72
2023-04-11T00:15:44.533Z,15.93
2023-04-11T00:19:46.556Z,15.99
2023-04-11T00:23:47.979Z,16.21
2023-04-11T00:27:49.340Z,15.64
2023-04-11T00:31:52.661Z,15.99
2023-04-11T00:35:54.260Z,15.66
2023-04-11T00:39:56.145Z,15.85
2023-04-11T00:43:58.610Z,15.91
2023-04-11T00:48:01.271Z,15.58
2023-04-11T00:52:04.010Z,15.99
2023-04-11T00:56:06.663Z,15.88
2023-04-11T01:00:10.500Z,15.94
2023-04-11T01:04:12.606Z,15.76
2023-04-11T01:08:14.802Z,15.81
2023-04-11T01:12:17.393Z,15.86
2023-04-11T01:16:22.051Z,15.20
2023-04-11T01:20:24.184Z,15.56
2023-04-11T01:24:25.906Z,15.93
2023-04-11T01:28:27.331Z,16.15
2023-04-11T01:32:28.882Z,15.39
2023-04-11T01:36:31.601Z,15.65
2023-04-11T01:40:33.220Z,15.45
2023-04-11T01:44:36.444Z,15.53
2023-04-11T01:48:38.985Z,15.45
2023-04-11T01:52:40.966Z,15.75
2023-04-11T01:56:43.254Z,16.13
2023-04-11T02:00:44.817Z,16.22
2023-04-11T02:04:46.444Z,15.99
2023-04-11T02:08:49.403Z,16.05
2023-04-11T02:12:50.868Z,15.76
2023-04-11T02:16:54.881Z,16.01
2023-04-11T02:20:56.303Z,15.79
2023-04-11T02:24:57.692Z,15.62
2023-04-11T02:28:59.568Z,15.79
2023-04-11T02:33:01.199Z,15.90
2023-04-11T02:37:02.713Z,16.04
2023-04-11T02:41:04.413Z,16.05
2023-04-11T02:45:08.245Z,16.09
2023-04-11T02:49:09.845Z,16.03
2023-04-11T02:53:11.826Z,15.44
2023-04-11T02:57:20.177Z,15.61
2023-04-11T03:01:24.786Z,15.69
2023-04-11T03:05:27.832Z,14.41
2023-04-11T03:09:29.253Z,14.79
2023-04-11T03:13:30.910Z,14.10
2023-04-11T03:17:33.940Z,14.01
2023-04-11T03:21:36.348Z,13.99
2023-04-11T03:25:38.915Z,13.98
2023-04-11T03:29:40.631Z,13.54
2023-04-11T03:33:49.362Z,13.37
2023-04-11T03:37:50.933Z,13.42
2023-04-11T03:41:52.503Z,13.78
2023-04-11T03:45:54.011Z,13.58
2023-04-11T03:50:09.878Z,14.02
2023-04-11T03:54:17.831Z,13.57
2023-04-11T03:58:19.538Z,13.91
2023-04-11T04:02:21.731Z,13.97
2023-04-11T04:06:26.922Z,13.57
2023-04-11T04:10:28.606Z,13.78
2023-04-11T04:14:30.119Z,14.11
2023-04-11T04:18:31.754Z,13.95
2023-04-11T04:22:35.071Z,14.06
2023-04-11T04:26:40.885Z,13.86
2023-04-11T04:31:04.066Z,13.56
2023-04-11T04:35:16.666Z,14.37
2023-04-11T04:39:19.356Z,13.01
2023-04-11T04:43:24.946Z,13.02
2023-04-11T04:47:35.742Z,13.43
2023-04-11T04:51:38.491Z,13.70
2023-04-11T04:55:40.534Z,13.92
2023-04-11T04:59:44.668Z,13.36
2023-04-11T05:03:50.879Z,13.75
2023-04-11T05:08:01.077Z,13.33
2023-04-11T05:12:06.695Z,14.16
2023-04-11T05:16:10.981Z,13.45
2023-04-11T05:20:13.517Z,13.75
2023-04-11T05:24:16.643Z,13.53
2023-04-11T05:28:18.494Z,13.79
2023-04-11T05:32:21.056Z,14.14
2023-04-11T05:36:23.041Z,14.42
2023-04-11T05:40:24.540Z,14.53
2023-04-11T05:44:25.997Z,14.68
2023-04-11T05:48:27.379Z,14.33
2023-04-11T05:52:28.848Z,14.36
2023-04-11T05:56:30.256Z,14.41
2023-04-11T06:00:32.398Z,14.10
2023-04-11T06:04:34.113Z,13.54
2023-04-11T06:08:35.769Z,14.27
2023-04-11T06:12:37.217Z,13.89
2023-04-11T06:16:38.858Z,14.38
2023-04-11T06:20:40.455Z,14.14
2023-04-11T06:24:42.075Z,14.91
2023-04-11T06:28:43.462Z,14.35
2023-04-11T06:32:45.190Z,14.60
2023-04-11T06:36:49.696Z,14.84
2023-04-11T06:40:52.185Z,14.62
2023-04-11T06:44:53.628Z,14.47
2023-04-11T06:48:56.013Z,14.07
2023-04-11T06:52:58.368Z,14.22
2023-04-11T06:56:59.936Z,14.60
2023-04-11T07:01:01.548Z,14.12
2023-04-11T07:05:03.638Z,14.52
2023-04-11T07:09:05.784Z,14.63
2023-04-11T07:13:07.157Z,14.34
2023-04-11T07:17:08.613Z,13.85
2023-04-11T07:21:13.860Z,14.41
2023-04-11T07:25:15.421Z,14.58
2023-04-11T07:29:16.783Z,14.22
2023-04-11T07:33:18.146Z,13.91
2023-04-11T07:37:19.568Z,14.72
2023-04-11T07:41:20.982Z,15.44
2023-04-11T07:45:22.586Z,15.41
2023-04-11T07:49:24.043Z,15.82
2023-04-11T07:53:27.048Z,15.78
2023-04-11T07:57:29.230Z,15.28
2023-04-11T08:01:31.204Z,15.90
2023-04-11T08:05:34.766Z,14.92
2023-04-11T08:09:36.260Z,14.76
2023-04-11T08:13:37.716Z,14.34
2023-04-11T08:17:40.909Z,14.64
2023-04-11T08:21:42.834Z,15.38
2023-04-11T08:25:44.604Z,15.67
2023-04-11T08:29:46.791Z,15.92
2023-04-11T08:33:48.505Z,15.82
2023-04-11T08:37:49.894Z,14.89
2023-04-11T08:41:51.517Z,14.56
2023-04-11T08:45:53.757Z,14.93
2023-04-11T08:49:56.491Z,15.34
2023-04-11T08:54:05.620Z,15.04
2023-04-11T08:58:06.994Z,14.75
2023-04-11T09:02:09.444Z,15.38
2023-04-11T09:06:11.384Z,15.09
2023-04-11T09:10:22.170Z,15.18
2023-04-11T09:14:27.025Z,14.77
2023-04-11T09:18:35.355Z,15.09
2023-04-11T09:22:36.931Z,14.88
2023-04-11T09:26:38.344Z,14.37
2023-04-11T09:30:50.633Z,14.48
2023-04-11T09:34:52.041Z,14.64
2023-04-11T09:38:53.894Z,14.64
2023-04-11T09:42:58.226Z,14.81
2023-04-11T09:46:59.967Z,15.04
2023-04-11T09:51:05.825Z,14.94
2023-04-11T09:55:08.091Z,14.94
2023-04-11T09:59:09.671Z,15.90
2023-04-11T10:03:11.148Z,15.81
2023-04-11T10:07:14.211Z,15.95
2023-04-11T10:11:18.493Z,15.47
2023-04-11T10:15:20.056Z,15.63
2023-04-11T10:19:21.621Z,15.99
2023-04-11T10:23:23.039Z,15.68
2023-04-11T10:27:49.938Z,14.95
2023-04-11T10:32:12.823Z,14.55
2023-04-11T10:36:14.296Z,14.18
2023-04-11T10:40:16.204Z,14.66
2023-04-11T10:44:23.266Z,15.02
2023-04-11T10:48:24.642Z,15.44
2023-04-11T10:52:27.114Z,15.02
2023-04-11T10:56:57.768Z,15.44
2023-04-11T11:01:00.072Z,16.04
2023-04-11T11:05:02.354Z,16.00
2023-04-11T11:09:21.338Z,15.51
2023-04-11T11:13:22.705Z,15.22
2023-04-11T11:17:24.260Z,15.01
2023-04-11T11:21:28.641Z,14.96
2023-04-11T11:25:31.027Z,15.42
2023-04-11T11:29:35.695Z,16.79
2023-04-11T11:33:40.705Z,16.42
2023-04-11T11:37:42.310Z,15.88
2023-04-11T11:41:43.759Z,16.32
2023-04-11T11:45:45.675Z,17.35
2023-04-11T11:49:52.544Z,17.02
2023-04-11T11:54:11.233Z,16.83
2023-04-11T11:58:12.670Z,16.09
2023-04-11T12:02:16.259Z,15.82
2023-04-11T12:06:17.861Z,15.71
2023-04-11T12:10:19.247Z,15.80
2023-04-11T12:14:23.835Z,16.18
2023-04-11T12:18:28.374Z,16.24
2023-04-11T12:22:29.741Z,15.37
2023-04-11T12:26:31.107Z,15.62
2023-04-11T12:30:32.876Z,15.36
2023-04-11T12:34:34.272Z,15.48
2023-04-11T12:38:35.668Z,15.16
2023-04-11T12:46:45.533Z,15.65
2023-04-11T12:50:46.922Z,16.15
2023-04-11T12:54:48.302Z,16.25
2023-04-11T12:58:49.720Z,16.25
2023-04-11T13:02:51.800Z,15.85
2023-04-11T13:06:53.343Z,15.54
2023-04-11T13:10:55.939Z,15.64
2023-04-11T13:14:57.414Z,15.88
2023-04-11T13:18:58.893Z,15.22
2023-04-11T13:23:00.438Z,15.35
2023-04-11T13:27:01.847Z,15.58
2023-04-11T13:31:03.268Z,15.31
2023-04-11T13:35:05.800Z,15.48
2023-04-11T13:39:07.812Z,15.13
2023-04-11T13:43:09.893Z,14.72
2023-04-11T13:47:11.350Z,14.56
2023-04-11T13:51:13.166Z,14.63
2023-04-11T13:55:14.734Z,14.31
2023-04-11T13:59:16.222Z,14.79
2023-04-11T14:03:17.975Z,15.22
2023-04-11T14:07:19.447Z,14.67
2023-04-11T14:11:21.028Z,14.68
2023-04-11T14:15:22.541Z,14.64
2023-04-11T14:19:24.846Z,14.10
2023-04-11T14:23:26.650Z,13.88
2023-04-11T14:27:28.168Z,14.19
2023-04-11T14:31:29.747Z,13.86
2023-04-11T14:35:31.458Z,12.67
2023-04-11T14:39:33.006Z,12.45
2023-04-11T14:43:34.437Z,12.37
2023-04-11T14:47:35.986Z,12.44
2023-04-11T14:51:38.728Z,12.24
2023-04-11T14:55:42.727Z,11.99
2023-04-11T14:59:44.227Z,11.98
2023-04-11T15:03:46.182Z,11.85
2023-04-11T15:07:49.985Z,11.59
2023-04-11T15:11:51.541Z,11.96
2023-04-11T15:15:53.557Z,12.28
2023-04-11T15:19:54.975Z,12.32
2023-04-11T15:23:56.474Z,12.50
2023-04-11T15:27:57.986Z,12.17
2023-04-11T15:32:02.924Z,12.87
2023-04-11T15:36:04.836Z,12.72
2023-04-11T15:40:07.104Z,12.39
2023-04-11T15:44:08.913Z,12.84
2023-04-11T15:48:13.796Z,12.71
2023-04-11T15:52:16.644Z,12.78
2023-04-11T15:56:19.967Z,12.36
2023-04-11T16:00:24.366Z,12.69
2023-04-11T16:04:27.079Z,12.69
2023-04-11T16:08:29.542Z,12.81
2023-04-11T16:12:30.962Z,12.67
2023-04-11T16:16:32.450Z,12.61
2023-04-11T16:20:34.039Z,12.80
2023-04-11T16:24:35.582Z,12.95
2023-04-11T16:28:36.950Z,12.41
2023-04-11T16:32:38.540Z,12.01
2023-04-11T16:36:40.059Z,12.05
2023-04-11T16:40:41.441Z,12.62
2023-04-11T16:44:42.916Z,12.19
2023-04-11T16:48:44.361Z,12.46
2023-04-11T16:52:45.962Z,12.45
2023-04-11T16:56:48.033Z,12.15
2023-04-11T17:00:51.022Z,12.84
2023-04-11T17:04:52.833Z,12.59
2023-04-11T17:08:54.311Z,12.33
2023-04-11T17:12:58.203Z,12.23
2023-04-11T17:16:59.621Z,12.41
2023-04-11T17:21:01.171Z,12.59
2023-04-11T17:25:02.794Z,12.04
2023-04-11T17:29:06.425Z,12.43
2023-04-11T17:33:08.595Z,12.21
2023-04-11T17:37:10.065Z,12.31
2023-04-11T17:41:14.944Z,12.20
2023-04-11T17:45:18.566Z,12.24
2023-04-11T17:49:21.527Z,12.65
2023-04-11T17:53:22.961Z,12.46
2023-04-11T17:57:24.330Z,12.08
2023-04-11T18:01:31.904Z,12.26
2023-04-11T18:05:34.891Z,11.98
2023-04-11T18:09:36.239Z,12.21
2023-04-11T18:13:37.600Z,12.56
2023-04-11T18:17:40.450Z,12.52
2023-04-11T18:21:41.857Z,12.54
2023-04-11T18:25:43.258Z,12.46
2023-04-11T18:29:45.299Z,12.30
2023-04-11T18:33:47.989Z,12.38
2023-04-11T18:37:50.216Z,12.40
2023-04-11T18:41:51.608Z,12.23
2023-04-11T18:45:53.080Z,12.31
2023-04-11T18:49:54.527Z,12.23
2023-04-11T18:53:56.422Z,12.46
2023-04-11T18:58:00.450Z,12.71
2023-04-11T19:02:02.523Z,12.68
2023-04-11T19:06:04.986Z,12.24
2023-04-11T19:10:08.022Z,11.90
2023-04-11T19:14:09.520Z,12.36
2023-04-11T19:18:11.150Z,12.05
2023-04-11T19:22:12.572Z,12.19
2023-04-11T19:26:14.729Z,11.67
2023-04-11T19:30:16.269Z,11.68
2023-04-11T19:34:17.641Z,12.21
2023-04-11T19:38:18.993Z,11.97
2023-04-11T19:42:20.400Z,11.82
2023-04-11T19:46:21.902Z,11.63
2023-04-11T19:50:23.386Z,11.84
2023-04-11T19:54:24.834Z,11.47
2023-04-11T19:58:26.540Z,11.43
2023-04-11T20:02:28.061Z,11.35
2023-04-11T20:06:29.580Z,11.63
2023-04-11T20:10:31.583Z,11.17
2023-04-11T20:14:33.448Z,11.36
2023-04-11T20:18:34.871Z,11.20
2023-04-11T20:22:38.210Z,11.66
2023-04-11T20:26:39.710Z,11.38
2023-04-11T20:30:41.126Z,11.38
2023-04-11T20:34:42.519Z,11.47
2023-04-11T20:38:44.003Z,11.31
2023-04-11T20:42:45.967Z,11.25
2023-04-11T20:46:47.990Z,11.06
2023-04-11T20:50:49.940Z,11.06
2023-04-11T20:54:51.299Z,10.94
2023-04-11T20:58:52.675Z,11.19
2023-04-11T21:02:54.202Z,11.22
2023-04-11T21:06:56.814Z,11.06
2023-04-11T21:10:58.273Z,11.27
2023-04-11T21:14:59.834Z,10.93
2023-04-11T21:19:01.219Z,11.24
2023-04-11T21:23:02.767Z,11.01
2023-04-11T21:27:04.230Z,10.86
2023-04-11T21:31:06.059Z,10.74
2023-04-11T21:35:09.719Z,10.55
2023-04-11T21:39:11.357Z,10.33
2023-04-11T21:43:13.108Z,10.27
2023-04-11T21:47:14.586Z,10.16
2023-04-11T21:51:16.495Z,10.32
2023-04-11T21:55:18.005Z,9.80
2023-04-11T21:59:19.493Z,10.15
2023-04-11T22:03:21.016Z,10.09
2023-04-11T22:07:26.388Z,10.04
2023-04-11T22:11:27.827Z,10.00
2023-04-11T22:15:33.084Z,9.81
2023-04-11T22:19:35.014Z,9.71
2023-04-11T22:23:36.376Z,9.68
2023-04-11T22:27:38.254Z,9.61
2023-04-11T22:31:39.667Z,9.57
2023-04-11T22:35:43.850Z,9.35
2023-04-11T22:39:45.580Z,9.43
2023-04-11T22:43:46.950Z,9.46
2023-04-11T22:47:48.396Z,9.01
2023-04-11T22:51:49.835Z,9.03
2023-04-11T22:55:51.618Z,9.10
2023-04-11T22:59:52.966Z,9.08
2023-04-11T23:03:54.456Z,9.07
2023-04-11T23:07:55.886Z,8.91
2023-04-11T23:11:57.289Z,8.96
2023-04-11T23:16:01.505Z,9.14
2023-04-11T23:20:12.543Z,9.20
2023-04-11T23:24:13.976Z,9.18
2023-04-11T23:28:15.840Z,9.05
2023-04-11T23:32:18.779Z,9.11
2023-04-11T23:36:20.259Z,9.02
2023-04-11T23:40:22.691Z,8.98
2023-04-11T23:44:24.050Z,8.86
2023-04-11T23:48:25.405Z,9.06
2023-04-11T23:52:26.895Z,9.05
2023-04-11T23:56:28.424Z,9.04
